Time;durP1;ratioP1;P1;durP2;ratioP2;P2;SDS_P1;SDS_P2;PMS_P1;PMS_P2;Temp;Humidity;BMP_temperature;BMP_pressure;BME280_temperature;BME280_humidity;BME280_pressure;Samples;Min_cycle;Max_cycle;Signal;HPM_P1;HPM_P2
2023/01/21 00:03:32;;;;;;;57.50;23.93;;;;;;;-0.99;100.00;101330.70;4973261;57;1143087;-77
2023/01/21 00:08:37;;;;;;;45.93;21.50;;;;;;;-0.98;100.00;101321.59;5116150;56;1143111;-73
2023/01/21 00:13:44;;;;;;;55.13;24.20;;;;;;;-0.94;100.00;101319.36;5020877;56;1143119;-81
2023/01/21 00:18:50;;;;;;;49.90;22.13;;;;;;;-0.95;100.00;101305.11;5108748;55;1143022;-88
2023/01/21 00:23:56;;;;;;;50.67;22.98;;;;;;;-0.94;100.00;101298.59;5101167;56;1143227;-80
2023/01/21 00:29:02;;;;;;;64.37;27.82;;;;;;;-0.90;100.00;101303.27;5033197;56;1142991;-72
2023/01/21 00:34:08;;;;;;;51.67;23.13;;;;;;;-0.88;100.00;101305.39;5052847;56;1142971;-73
2023/01/21 00:39:14;;;;;;;39.70;17.13;;;;;;;-0.86;100.00;101307.53;5033140;56;1143306;-85
2023/01/21 00:44:20;;;;;;;62.20;26.03;;;;;;;-0.86;100.00;101320.06;5060625;56;1143241;-76
2023/01/21 00:49:25;;;;;;;58.73;24.60;;;;;;;-0.88;100.00;101325.73;5112742;56;1143109;-81
2023/01/21 00:54:31;;;;;;;58.98;26.23;;;;;;;-0.89;100.00;101325.75;5117518;56;1142893;-84
2023/01/21 00:59:37;;;;;;;37.73;16.27;;;;;;;-0.86;100.00;101333.49;5094164;56;1142936;-79
2023/01/21 01:04:43;;;;;;;40.23;17.53;;;;;;;-0.84;100.00;101332.59;5092121;56;1142946;-85
2023/01/21 01:09:50;;;;;;;53.40;21.83;;;;;;;-0.84;100.00;101340.81;5129425;56;1142957;-84
2023/01/21 01:14:56;;;;;;;51.67;22.50;;;;;;;-0.84;100.00;101335.63;5118446;55;1146091;-81
2023/01/21 01:20:02;;;;;;;57.03;23.70;;;;;;;-0.82;100.00;101338.62;5106134;55;1143212;-79
2023/01/21 01:25:08;;;;;;;56.20;24.73;;;;;;;-0.82;100.00;101329.97;5150078;55;1142996;-69
2023/01/21 01:30:14;;;;;;;43.13;20.17;;;;;;;-0.78;100.00;101335.09;5219848;55;1142940;-68
2023/01/21 01:35:21;;;;;;;48.23;20.57;;;;;;;-0.74;100.00;101345.81;5220128;55;1143097;-77
2023/01/21 01:40:27;;;;;;;48.83;21.17;;;;;;;-0.68;100.00;101342.70;5220729;55;1147360;-83
2023/01/21 01:45:35;;;;;;;48.83;21.87;;;;;;;-0.68;100.00;101342.26;5097175;55;1143047;-87
2023/01/21 01:50:42;;;;;;;51.50;20.37;;;;;;;-0.61;100.00;101349.04;5114339;56;1143068;-79
2023/01/21 01:55:50;;;;;;;40.57;19.43;;;;;;;-0.57;100.00;101352.00;5092528;56;1143035;-79
2023/01/21 02:00:58;;;;;;;37.67;16.13;;;;;;;-0.54;100.00;101349.80;5139320;55;1154109;-83
2023/01/21 02:06:04;;;;;;;41.93;19.17;;;;;;;-0.50;100.00;101346.27;5116890;56;1142997;-77
2023/01/21 02:11:16;;;;;;;31.20;15.20;;;;;;;-0.46;100.00;101340.95;5117607;56;1150841;-75
2023/01/21 02:17:02;;;;;;;36.63;17.67;;;;;;;-0.42;100.00;101339.16;5117669;56;1143048;-71
2023/01/21 02:22:36;;;;;;;32.17;15.50;;;;;;;-0.38;100.00;101343.42;4899072;58;1143218;-75
2023/01/21 02:28:09;;;;;;;36.40;15.15;;;;;;;-0.35;100.00;101334.27;5001593;56;1143152;-77
2023/01/21 02:33:50;;;;;;;42.63;18.10;;;;;;;-0.31;100.00;101341.13;5118178;55;1142958;-80
2023/01/21 02:39:12;;;;;;;36.23;17.83;;;;;;;-0.27;100.00;101340.16;5117665;55;1143056;-84
2023/01/21 02:44:39;;;;;;;33.77;16.27;;;;;;;-0.20;100.00;101331.81;5055722;56;1143128;-79
2023/01/21 02:49:50;;;;;;;26.87;12.27;;;;;;;-0.19;100.00;101330.48;5137822;56;1142989;-74
2023/01/21 02:54:59;;;;;;;32.97;15.87;;;;;;;-0.20;100.00;101331.36;5117369;56;1142986;-77
2023/01/21 03:00:16;;;;;;;31.97;14.45;;;;;;;-0.21;100.00;101325.75;5120404;56;1143270;-82
2023/01/21 03:05:48;;;;;;;29.40;12.77;;;;;;;-0.19;100.00;101327.88;5019368;56;1143304;-91
2023/01/21 03:11:15;;;;;;;33.17;15.53;;;;;;;-0.20;100.00;101334.41;5142236;56;1261785;-89
2023/01/21 03:21:49;;;;;;;36.73;16.40;;;;;;;-0.20;100.00;101335.70;5124199;56;1143217;-80
2023/01/21 03:26:58;;;;;;;36.77;17.05;;;;;;;-0.18;100.00;101344.34;5218239;55;1143213;-70
2023/01/21 03:32:08;;;;;;;29.43;13.87;;;;;;;-0.16;100.00;101334.33;5208362;55;1143014;-84
2023/01/21 03:37:22;;;;;;;34.67;15.90;;;;;;;-0.16;100.00;101326.53;5183000;55;1143083;-77
2023/01/21 03:42:28;;;;;;;31.82;14.83;;;;;;;-0.19;100.00;101324.42;5089848;56;1143049;-81
2023/01/21 03:47:38;;;;;;;31.73;14.97;;;;;;;-0.20;100.00;101322.27;5142720;56;1143033;-76
2023/01/21 03:52:46;;;;;;;26.15;13.13;;;;;;;-0.20;100.00;101322.27;5133592;56;1143031;-78
2023/01/21 03:57:52;;;;;;;28.73;13.27;;;;;;;-0.21;100.00;101322.30;5133628;56;1143225;-77
2023/01/21 04:02:58;;;;;;;30.68;13.75;;;;;;;-0.22;100.00;101324.04;5132495;56;1143019;-73
2023/01/21 04:08:04;;;;;;;29.63;12.93;;;;;;;-0.22;100.00;101329.23;5110011;56;1143109;-68
2023/01/21 04:13:09;;;;;;;32.13;14.97;;;;;;;-0.19;100.00;101328.33;5109932;56;1142925;-70
2023/01/21 04:18:15;;;;;;;34.53;16.03;;;;;;;-0.16;100.00;101325.22;5130128;56;1143159;-70
2023/01/21 04:23:21;;;;;;;28.67;15.03;;;;;;;-0.17;100.00;101320.91;5110350;56;1142923;-68
2023/01/21 04:28:27;;;;;;;27.97;12.67;;;;;;;-0.15;100.00;101318.25;5102110;56;1143180;-82
2023/01/21 04:33:33;;;;;;;27.73;13.07;;;;;;;-0.13;100.00;101315.17;5133653;56;1143042;-84
2023/01/21 04:38:39;;;;;;;25.03;12.70;;;;;;;-0.10;100.00;101317.28;5125461;56;1142948;-69
2023/01/21 04:43:44;;;;;;;25.83;12.37;;;;;;;-0.10;100.00;101320.32;5144631;55;1143068;-70
2023/01/21 04:48:51;;;;;;;28.53;13.73;;;;;;;-0.08;100.00;101319.41;5233608;55;1143359;-72
2023/01/21 04:53:57;;;;;;;36.08;15.83;;;;;;;-0.05;100.00;101321.09;5221942;55;1143006;-79
2023/01/21 04:59:03;;;;;;;36.00;15.50;;;;;;;-0.05;100.00;101318.05;5182596;55;1143134;-72
2023/01/21 05:04:09;;;;;;;29.20;14.33;;;;;;;-0.03;100.00;101319.31;5086050;56;1143003;-80
2023/01/21 05:09:14;;;;;;;22.62;11.40;;;;;;;-0.03;100.00;101314.12;5075034;56;1143021;-77
2023/01/21 05:14:20;;;;;;;25.50;11.87;;;;;;;-0.01;100.00;101304.55;5112231;55;1142991;-75
2023/01/21 05:19:26;;;;;;;24.50;12.40;;;;;;;-0.01;100.00;101287.64;5096454;56;1143116;-76
2023/01/21 05:24:32;;;;;;;22.20;11.73;;;;;;;-0.01;100.00;101297.60;5144102;55;1142946;-85
2023/01/21 05:29:38;;;;;;;31.27;12.93;;;;;;;0.03;100.00;101302.27;5144325;55;1142988;-85
2023/01/21 05:34:43;;;;;;;19.03;8.70;;;;;;;0.06;100.00;101302.20;5096770;56;1140919;-72
2023/01/21 05:39:49;;;;;;;21.17;10.13;;;;;;;0.08;100.00;101298.27;5116901;56;1138979;-76
2023/01/21 05:44:55;;;;;;;26.10;11.20;;;;;;;0.12;100.00;101304.69;5135853;55;1141295;-73
2023/01/21 05:50:01;;;;;;;26.13;10.70;;;;;;;0.16;100.00;101298.50;5172144;55;1141119;-84
2023/01/21 05:55:07;;;;;;;18.87;8.08;;;;;;;0.19;100.00;101284.13;5181697;55;1141108;-72
2023/01/21 06:00:15;;;;;;;24.73;10.27;;;;;;;0.24;100.00;101284.03;5149048;55;1138996;-81
2023/01/21 06:05:21;;;;;;;13.10;7.57;;;;;;;0.25;100.00;101290.95;5126913;55;1140924;-78
2023/01/21 06:10:27;;;;;;;16.93;9.68;;;;;;;0.29;100.00;101287.39;5067516;56;1139070;-72
2023/01/21 06:15:33;;;;;;;25.07;10.23;;;;;;;0.31;100.00;101292.09;4993641;57;1139102;-75
2023/01/21 06:20:39;;;;;;;27.60;10.63;;;;;;;0.35;100.00;101278.98;5082140;56;1141123;-70
2023/01/21 06:25:45;;;;;;;30.13;11.40;;;;;;;0.39;100.00;101284.13;5097377;55;1141096;-70
2023/01/21 06:30:51;;;;;;;24.73;11.07;;;;;;;0.43;100.00;101287.08;5117834;56;1141005;-74
2023/01/21 06:35:57;;;;;;;24.37;10.43;;;;;;;0.47;100.00;101290.84;5097448;56;1141017;-76
2023/01/21 06:41:03;;;;;;;18.83;9.10;;;;;;;0.50;100.00;101283.41;5097798;56;1141091;-73
2023/01/21 06:46:10;;;;;;;23.00;11.43;;;;;;;0.56;100.00;101285.88;5178617;55;1139079;-70
2023/01/21 06:51:16;;;;;;;16.42;8.65;;;;;;;0.57;100.00;101279.34;5184343;55;1140981;-72
2023/01/21 06:56:22;;;;;;;21.07;8.20;;;;;;;0.63;100.00;101274.41;5184613;55;1139163;-73
2023/01/21 07:01:29;;;;;;;15.95;6.65;;;;;;;0.65;100.00;101268.28;5127824;55;1138781;-71
2023/01/21 07:06:34;;;;;;;19.37;7.60;;;;;;;0.67;100.00;101266.50;5118045;55;1139271;-84
2023/01/21 07:11:40;;;;;;;23.70;7.97;;;;;;;0.72;100.00;101272.05;5097685;55;1138832;-75
2023/01/21 07:16:46;;;;;;;13.13;7.20;;;;;;;0.74;100.00;101276.77;5098633;56;1138924;-66
2023/01/21 07:21:53;;;;;;;22.05;8.90;;;;;;;0.75;100.00;101268.92;5118906;55;1138835;-73
2023/01/21 07:26:58;;;;;;;14.87;7.93;;;;;;;0.77;100.00;101268.86;5058602;56;1139050;-77
2023/01/21 07:32:04;;;;;;;18.53;7.63;;;;;;;0.79;100.00;101262.72;5043001;55;1138873;-70
2023/01/21 07:37:11;;;;;;;20.92;7.30;;;;;;;0.80;100.00;101254.02;5139592;55;1138916;-66
2023/01/21 07:42:17;;;;;;;14.13;6.50;;;;;;;0.82;100.00;101249.63;5181065;55;1146523;-72
2023/01/21 07:47:22;;;;;;;10.85;5.75;;;;;;;0.86;100.00;101251.72;4997196;55;1138897;-70
2023/01/21 07:52:28;;;;;;;14.87;6.87;;;;;;;0.86;100.00;101249.97;5205657;54;1138741;-68
2023/01/21 07:57:34;;;;;;;20.57;7.70;;;;;;;0.90;100.00;101244.24;5210161;54;1138752;-71
2023/01/21 08:02:41;;;;;;;15.93;6.33;;;;;;;0.91;100.00;101247.25;4969773;56;1138795;-72
2023/01/21 08:07:47;;;;;;;10.90;4.47;;;;;;;0.94;100.00;101233.68;4946965;57;1139092;-69
2023/01/21 08:12:53;;;;;;;6.07;3.47;;;;;;;0.94;100.00;101225.87;5024511;57;1138877;-70
2023/01/21 08:17:59;;;;;;;7.73;4.00;;;;;;;0.97;100.00;101231.45;5076866;56;1136834;-74
2023/01/21 08:23:04;;;;;;;16.60;5.00;;;;;;;0.98;100.00;101219.69;5046129;56;1136753;-78
2023/01/21 08:28:11;;;;;;;9.30;4.78;;;;;;;1.01;100.00;101227.88;5089831;56;1138931;-75
2023/01/21 08:33:17;;;;;;;10.75;5.17;;;;;;;0.99;100.00;101219.24;5024771;56;1136749;-74
2023/01/21 08:38:22;;;;;;;17.10;5.92;;;;;;;0.98;100.00;101216.23;5043532;56;1139224;-84
2023/01/21 08:43:28;;;;;;;9.73;5.07;;;;;;;0.96;100.00;101227.98;5103401;55;1138837;-78
2023/01/21 08:48:34;;;;;;;23.90;8.60;;;;;;;0.93;100.00;101211.58;5181754;55;1136815;-71
2023/01/21 08:53:40;;;;;;;11.23;5.10;;;;;;;0.91;100.00;101207.75;5167199;55;1138960;-79
2023/01/21 08:58:46;;;;;;;17.13;5.80;;;;;;;0.86;100.00;101216.56;4944076;57;1138953;-79
2023/01/21 09:04:00;;;;;;;18.37;7.57;;;;;;;0.84;100.00;101215.30;5081847;56;1138770;-78
2023/01/21 09:09:06;;;;;;;26.02;8.43;;;;;;;0.79;100.00;101204.59;4941570;57;1138898;-75
2023/01/21 09:14:12;;;;;;;24.70;8.60;;;;;;;0.76;100.00;101196.44;5041822;57;1138931;-74
2023/01/21 09:19:18;;;;;;;12.93;6.53;;;;;;;0.74;100.00;101191.72;5037580;57;1139077;-76
2023/01/21 09:24:24;;;;;;;19.62;8.08;;;;;;;0.73;100.00;101182.20;5018324;57;1138889;-71
2023/01/21 09:29:30;;;;;;;15.87;6.87;;;;;;;0.72;100.00;101175.28;4997215;57;1138800;-79
2023/01/21 09:34:35;;;;;;;23.23;8.17;;;;;;;0.72;100.00;101165.31;5006997;57;1138818;-71
2023/01/21 09:39:41;;;;;;;17.83;6.03;;;;;;;0.66;100.00;101152.85;5006973;57;1138980;-76
2023/01/21 09:44:51;;;;;;;12.10;4.35;;;;;;;0.64;100.00;101139.02;5062468;56;1138841;-76
2023/01/21 09:50:07;;;;;;;23.23;7.17;;;;;;;0.64;100.00;101131.66;5047643;56;1139218;-73
2023/01/21 09:55:19;;;;;;;79.58;32.17;;;;;;;0.62;100.00;101125.64;5020959;56;1139239;-72
2023/01/21 10:00:44;;;;;;;23.10;9.30;;;;;;;0.63;100.00;101120.84;5084892;56;1141139;-72
2023/01/21 10:06:15;;;;;;;17.77;5.20;;;;;;;0.63;100.00;101106.52;5026539;57;1138720;-75
2023/01/21 10:11:46;;;;;;;13.07;5.63;;;;;;;0.67;100.00;101088.63;4934290;56;1138925;-73
2023/01/21 10:17:03;;;;;;;19.97;8.57;;;;;;;0.65;100.00;101084.77;5100811;55;1138836;-72
2023/01/21 10:22:27;;;;;;;11.85;5.00;;;;;;;0.61;100.00;101080.53;5129061;55;1138911;-77
2023/01/21 10:27:36;;;;;;;21.80;4.80;;;;;;;0.59;100.00;101074.55;5103557;56;1139046;-66
2023/01/21 10:32:43;;;;;;;12.70;5.90;;;;;;;0.59;100.00;101079.75;5074985;56;1139096;-81
2023/01/21 10:37:56;;;;;;;15.00;7.57;;;;;;;0.56;100.00;101077.67;5076565;56;1138790;-72
2023/01/21 10:43:07;;;;;;;14.90;5.62;;;;;;;0.56;100.00;101076.38;5051143;56;1138860;-76
2023/01/21 10:48:39;;;;;;;15.88;5.80;;;;;;;0.56;100.00;101084.18;5139866;54;1138756;-75
2023/01/21 10:53:57;;;;;;;11.77;5.40;;;;;;;0.57;100.00;101097.60;5201342;55;1138741;-74
2023/01/21 10:59:11;;;;;;;11.88;4.85;;;;;;;0.60;100.00;101097.52;5207553;55;1138895;-70
2023/01/21 11:04:19;;;;;;;12.13;4.97;;;;;;;0.62;100.00;101111.32;5208909;55;1138913;-78
2023/01/21 11:09:30;;;;;;;13.17;7.53;;;;;;;0.60;100.00;101106.19;5169808;55;1138940;-69
2023/01/21 11:14:35;;;;;;;10.00;5.57;;;;;;;0.64;100.00;101112.99;5158488;55;1139008;-79
2023/01/21 11:19:41;;;;;;;10.23;5.20;;;;;;;0.61;100.00;101102.66;5056239;56;1139263;-76
2023/01/21 11:24:53;;;;;;;6.67;3.57;;;;;;;0.63;100.00;101106.52;4901808;57;1139088;-68
2023/01/21 11:29:59;;;;;;;10.47;5.17;;;;;;;0.59;100.00;101102.32;4946585;57;1136894;-79
2023/01/21 11:35:25;;;;;;;9.43;5.20;;;;;;;0.57;100.00;101094.55;5061761;56;1139141;-72
2023/01/21 11:40:38;;;;;;;10.60;4.23;;;;;;;0.58;100.00;101085.00;4914506;58;1136833;-76
2023/01/21 11:45:50;;;;;;;7.53;4.10;;;;;;;0.61;100.00;101083.62;5124041;56;1138999;-78
2023/01/21 11:50:57;;;;;;;4.37;3.47;;;;;;;0.66;100.00;101086.92;5170724;55;1136772;-77
2023/01/21 11:56:05;;;;;;;7.88;4.20;;;;;;;0.62;100.00;101086.15;5135461;55;1136714;-70
2023/01/21 12:01:22;;;;;;;7.87;3.45;;;;;;;0.61;100.00;101081.83;5105176;55;1136784;-73
2023/01/21 12:06:30;;;;;;;9.43;4.47;;;;;;;0.65;100.00;101089.12;5141946;55;1136907;-76
2023/01/21 12:11:37;;;;;;;8.27;3.77;;;;;;;0.67;100.00;101083.42;5135120;56;1137014;-79
2023/01/21 12:17:08;;;;;;;7.33;5.03;;;;;;;0.68;100.00;101078.63;5183746;55;1136787;-72
2023/01/21 12:22:38;;;;;;;8.80;5.43;;;;;;;0.68;100.00;101081.23;4954513;56;1136767;-70
2023/01/21 12:28:00;;;;;;;8.67;4.27;;;;;;;0.65;100.00;101087.81;5048000;55;1137029;-74
2023/01/21 12:33:19;;;;;;;9.37;5.93;;;;;;;0.66;100.00;101081.27;5131693;56;1136733;-78
2023/01/21 12:38:29;;;;;;;8.60;6.57;;;;;;;0.68;100.00;101083.83;5117405;56;1136711;-77
2023/01/21 12:43:40;;;;;;;6.80;5.10;;;;;;;0.67;100.00;101083.42;5112087;56;1136805;-79
2023/01/21 12:49:14;;;;;;;8.77;4.50;;;;;;;0.67;100.00;101076.92;5138494;56;1136602;-75
2023/01/21 12:54:27;;;;;;;5.03;3.10;;;;;;;0.70;100.00;101085.50;5151566;55;1136872;-71
2023/01/21 12:59:58;;;;;;;4.40;3.25;;;;;;;0.73;100.00;101084.57;4961998;57;1136873;-75
2023/01/21 13:05:32;;;;;;;4.03;3.23;;;;;;;0.69;100.00;101088.15;5109235;56;1136755;-72
2023/01/21 13:10:47;;;;;;;3.10;2.60;;;;;;;0.72;100.00;101085.91;5072313;56;1136768;-75
2023/01/21 13:15:58;;;;;;;5.63;3.57;;;;;;;0.74;100.00;101083.67;5127841;55;1136683;-70
2023/01/21 13:21:08;;;;;;;13.17;6.27;;;;;;;0.72;100.00;101093.27;5123694;55;1136708;-71
2023/01/21 13:26:43;;;;;;;5.20;2.72;;;;;;;0.70;100.00;101095.06;5072899;55;1138903;-72
2023/01/21 13:32:11;;;;;;;7.45;3.22;;;;;;;0.67;100.00;101091.23;5093839;55;1136768;-75
2023/01/21 13:37:51;;;;;;;26.42;9.93;;;;;;;0.66;100.00;101098.64;5097116;56;1136759;-69
2023/01/21 13:43:38;;;;;;;59.67;27.17;;;;;;;0.65;100.00;101098.23;5102034;55;1138735;-81
2023/01/21 13:49:04;;;;;;;19.10;9.10;;;;;;;0.63;100.00;101098.27;5177824;55;1140935;-69
2023/01/21 13:54:48;;;;;;;28.47;9.70;;;;;;;0.63;100.00;101097.41;5204081;55;1138859;-78
2023/01/21 14:00:02;;;;;;;;;;;;;;;0.65;100.00;101109.94;5186634;55;1138911;-80
2023/01/21 14:05:33;;;;;;;12.67;5.97;;;;;;;0.68;100.00;101115.92;5202355;55;974031;-80
2023/01/21 14:11:06;;;;;;;11.80;5.63;;;;;;;0.66;100.00;101121.62;5166627;55;1136791;-76
2023/01/21 14:16:20;;;;;;;34.88;11.12;;;;;;;0.65;100.00;101118.61;5117280;55;1138849;-74
2023/01/21 14:21:48;;;;;;;;;;;;;;;0.65;100.00;101115.15;5143794;55;1140984;-75
2023/01/21 14:27:40;;;;;;;21.30;7.87;;;;;;;0.65;100.00;101116.00;5203104;55;973988;-76
2023/01/21 14:32:53;;;;;;;9.40;4.77;;;;;;;0.64;100.00;101116.04;5183910;55;1137025;-73
2023/01/21 14:38:16;;;;;;;7.28;3.12;;;;;;;0.62;100.00;101128.24;5204458;55;1136730;-76
2023/01/21 14:43:39;;;;;;;3.87;2.10;;;;;;;0.61;100.00;101129.16;5128259;55;1136882;-79
2023/01/21 14:49:07;;;;;;;3.35;2.30;;;;;;;0.61;100.00;101148.20;5168643;55;1136928;-79
2023/01/21 14:54:17;;;;;;;4.20;2.97;;;;;;;0.60;100.00;101143.92;5126602;55;1136727;-75
2023/01/21 14:59:40;;;;;;;4.58;2.77;;;;;;;0.62;100.00;101156.88;5096028;56;1136716;-75
2023/01/21 15:05:05;;;;;;;4.37;2.90;;;;;;;0.60;100.00;101156.09;5095051;56;1136995;-80
2023/01/21 15:10:21;;;;;;;3.87;2.97;;;;;;;0.56;100.00;101156.61;5114457;56;1136786;-78
2023/01/21 15:15:35;;;;;;;2.77;2.53;;;;;;;0.58;100.00;101172.19;5097754;56;1136890;-65
2023/01/21 15:20:48;;;;;;;3.00;2.20;;;;;;;0.56;100.00;101181.33;5125530;55;1136775;-72
2023/01/21 15:26:16;;;;;;;4.05;3.12;;;;;;;0.57;100.00;101186.09;5204997;55;1136941;-74
2023/01/21 15:31:26;;;;;;;4.00;2.50;;;;;;;0.57;100.00;101184.79;5147738;55;1137001;-76
2023/01/21 15:36:38;;;;;;;5.65;3.25;;;;;;;0.55;100.00;101196.98;5118726;55;1136943;-77
2023/01/21 15:42:10;;;;;;;5.47;3.33;;;;;;;0.53;100.00;101202.22;5118266;56;1136706;-79
2023/01/21 15:47:55;;;;;;;5.53;2.70;;;;;;;0.56;100.00;101207.80;5012725;57;1136795;-75
2023/01/21 15:53:36;;;;;;;2.87;2.00;;;;;;;0.54;100.00;101211.74;5018303;57;1136700;-73
2023/01/21 15:59:03;;;;;;;5.60;3.50;;;;;;;0.50;100.00;101211.85;5018091;57;1136731;-77
2023/01/21 16:04:38;;;;;;;3.52;2.87;;;;;;;0.49;100.00;101227.91;5036623;57;1136703;-71
2023/01/21 16:10:11;;;;;;;4.07;2.23;;;;;;;0.49;100.00;101236.16;4898046;58;1136801;-69
2023/01/21 16:15:42;;;;;;;9.07;5.40;;;;;;;0.49;100.00;101244.83;4937213;58;1136761;-74
2023/01/21 16:20:52;;;;;;;10.57;5.13;;;;;;;0.50;100.00;101239.17;5109220;55;1136756;-68
2023/01/21 16:25:59;;;;;;;5.67;3.00;;;;;;;0.49;100.00;101248.73;5140387;55;1138967;-77
2023/01/21 16:31:05;;;;;;;19.90;8.30;;;;;;;0.48;100.00;101257.88;5115425;56;1136589;-75
2023/01/21 16:36:17;;;;;;;9.50;4.30;;;;;;;0.46;100.00;101267.48;5126997;55;1138891;-70
2023/01/21 16:41:23;;;;;;;9.13;3.37;;;;;;;0.47;100.00;101269.17;5184661;55;1136765;-77
2023/01/21 16:46:37;;;;;;;8.37;3.07;;;;;;;0.46;100.00;101276.12;5211411;55;1136983;-74
2023/01/21 16:51:50;;;;;;;10.10;4.90;;;;;;;0.45;100.00;101282.25;5115730;56;1136677;-76
2023/01/21 16:57:05;;;;;;;11.63;5.87;;;;;;;0.47;100.00;101289.55;5113407;56;1138888;-74
2023/01/21 17:02:21;;;;;;;7.03;3.80;;;;;;;0.48;100.00;101298.20;5127013;56;1138954;-72
2023/01/21 17:07:47;;;;;;;7.73;3.17;;;;;;;0.49;100.00;101299.48;5111749;56;1136829;-74
2023/01/21 17:12:58;;;;;;;11.23;4.90;;;;;;;0.50;100.00;101315.50;5115668;56;1136606;-67
2023/01/21 17:18:10;;;;;;;5.53;3.10;;;;;;;0.49;100.00;101324.64;5134946;56;1138795;-65
2023/01/21 17:23:25;;;;;;;9.20;4.60;;;;;;;0.50;100.00;101320.70;5107199;56;1136860;-71
2023/01/21 17:28:39;;;;;;;8.35;4.55;;;;;;;0.50;100.00;101336.77;5097960;56;1136823;-72
2023/01/21 17:33:45;;;;;;;11.07;3.80;;;;;;;0.52;100.00;101344.95;5069101;56;1136773;-69
2023/01/21 17:38:52;;;;;;;7.87;3.40;;;;;;;0.53;100.00;101348.41;5138223;55;1138863;-68
2023/01/21 17:43:59;;;;;;;14.20;5.73;;;;;;;0.53;100.00;101362.73;5122854;55;1136601;-71
2023/01/21 17:49:11;;;;;;;7.47;3.73;;;;;;;0.52;100.00;101370.98;5184227;55;1138636;-64
2023/01/21 17:54:26;;;;;;;5.35;3.45;;;;;;;0.54;100.00;101380.91;5204581;55;1136735;-66
2023/01/21 17:59:40;;;;;;;9.13;4.40;;;;;;;0.51;100.00;101395.30;5183754;55;1136875;-70
2023/01/21 18:04:46;;;;;;;7.73;3.63;;;;;;;0.51;100.00;101395.73;5183809;55;1136943;-71
2023/01/21 18:09:54;;;;;;;8.97;5.00;;;;;;;0.53;100.00;101397.42;5204458;55;1136723;-66
2023/01/21 18:15:00;;;;;;;8.77;4.67;;;;;;;0.52;100.00;101410.02;5184038;55;1136716;-74
2023/01/21 18:20:13;;;;;;;11.83;5.63;;;;;;;0.52;100.00;101417.83;5168456;55;1136866;-71
2023/01/21 18:25:20;;;;;;;3.93;2.97;;;;;;;0.49;100.00;101418.33;5077505;55;1139110;-75
2023/01/21 18:30:29;;;;;;;7.90;4.50;;;;;;;0.54;100.00;101432.97;5112430;56;1136857;-68
2023/01/21 18:35:35;;;;;;;8.00;3.20;;;;;;;0.55;100.00;101444.23;5091203;56;1136919;-74
2023/01/21 18:40:41;;;;;;;11.17;5.53;;;;;;;0.49;100.00;101446.52;5086401;56;1136809;-79
2023/01/21 18:45:47;;;;;;;6.80;3.80;;;;;;;0.51;100.00;101450.39;5123028;55;1138784;-74
2023/01/21 18:50:54;;;;;;;6.23;3.40;;;;;;;0.50;100.00;101452.58;5122417;55;1136741;-72
2023/01/21 18:56:01;;;;;;;6.37;3.40;;;;;;;0.50;100.00;101444.33;5121299;56;1136866;-74
2023/01/21 19:01:09;;;;;;;7.47;4.00;;;;;;;0.51;100.00;101458.20;5147511;56;1136683;-72
2023/01/21 19:06:17;;;;;;;5.80;3.67;;;;;;;0.52;100.00;101459.91;5127806;56;1136717;-71
2023/01/21 19:11:24;;;;;;;10.43;4.08;;;;;;;0.53;100.00;101465.09;5128910;55;1136811;-75
2023/01/21 19:16:30;;;;;;;4.97;3.40;;;;;;;0.51;100.00;101472.06;5092943;56;1138789;-70
2023/01/21 19:21:36;;;;;;;5.97;3.77;;;;;;;0.52;100.00;101474.23;5107618;56;1136957;-74
2023/01/21 19:26:43;;;;;;;7.62;4.35;;;;;;;0.52;100.00;101473.78;5093989;55;1136637;-68
2023/01/21 19:31:50;;;;;;;7.03;4.27;;;;;;;0.50;100.00;101478.16;5137608;55;1136901;-73
2023/01/21 19:36:56;;;;;;;11.70;5.03;;;;;;;0.51;100.00;101492.03;5193525;55;1137001;-77
2023/01/21 19:42:03;;;;;;;7.23;4.63;;;;;;;0.48;100.00;101497.30;5193068;55;1138910;-73
2023/01/21 19:47:28;;;;;;;8.70;3.97;;;;;;;0.49;100.00;101501.61;5117973;55;1136703;-72
2023/01/21 19:52:34;;;;;;;7.70;4.15;;;;;;;0.50;100.00;101511.13;5139378;55;1136801;-73
2023/01/21 19:57:44;;;;;;;6.83;4.03;;;;;;;0.52;100.00;101519.33;5166055;55;1136848;-79
2023/01/21 20:02:50;;;;;;;9.03;4.43;;;;;;;0.54;100.00;101525.36;5165861;55;1136631;-78
2023/01/21 20:07:57;;;;;;;7.20;5.03;;;;;;;0.49;100.00;101530.23;5154709;55;1136660;-70
2023/01/21 20:13:06;;;;;;;9.70;5.07;;;;;;;0.47;100.00;101539.81;5155438;55;1136784;-79
2023/01/21 20:18:26;;;;;;;6.78;3.77;;;;;;;0.46;100.00;101536.83;5126805;55;1136727;-75
2023/01/21 20:23:35;;;;;;;10.93;4.20;;;;;;;0.46;100.00;101548.06;5136031;55;1136817;-77
2023/01/21 20:28:49;;;;;;;7.30;4.83;;;;;;;0.45;100.00;101554.19;5128011;55;1138740;-74
2023/01/21 20:33:52;;;;;;;5.23;3.00;;;;;;;0.48;100.00;101563.66;5149940;56;1136808;-74
2023/01/21 20:38:59;;;;;;;5.67;4.40;;;;;;;0.46;100.00;101584.50;5188375;55;1136822;-73
2023/01/21 20:44:06;;;;;;;7.97;5.07;;;;;;;0.44;100.00;101586.74;5214393;55;1136822;-78
2023/01/21 20:49:14;;;;;;;6.17;3.60;;;;;;;0.44;100.00;101593.25;5250901;55;1136836;-73
2023/01/21 20:54:21;;;;;;;8.73;4.42;;;;;;;0.43;100.00;101595.00;5169180;55;1136803;-73
2023/01/21 20:59:28;;;;;;;8.73;4.63;;;;;;;0.44;100.00;101601.06;5054436;56;1136754;-69
2023/01/21 21:04:35;;;;;;;7.40;4.30;;;;;;;0.44;100.00;101601.06;5142805;55;1136723;-71
2023/01/21 21:09:42;;;;;;;14.67;6.77;;;;;;;0.44;100.00;101607.56;5044402;56;1136706;-75
2023/01/21 21:14:49;;;;;;;8.33;5.50;;;;;;;0.44;100.00;101620.58;5044549;57;1138760;-77
2023/01/21 21:19:55;;;;;;;8.87;5.73;;;;;;;0.43;100.00;101614.52;5108997;56;1136811;-76
2023/01/21 21:25:02;;;;;;;7.67;4.43;;;;;;;0.42;100.00;101623.20;5093145;56;1136650;-72
2023/01/21 21:30:13;;;;;;;8.87;5.50;;;;;;;0.39;100.00;101619.79;5054526;56;1136741;-71
2023/01/21 21:35:33;;;;;;;8.98;6.42;;;;;;;0.37;100.00;101629.36;5018212;56;1136755;-69
2023/01/21 21:40:39;;;;;;;18.47;7.47;;;;;;;0.41;100.00;101642.75;5055575;56;1136527;-78
2023/01/21 21:51:16;;;;;;;8.55;5.03;;;;;;;0.45;100.00;101654.83;5180928;55;1193049;-75
2023/01/21 21:56:23;;;;;;;12.37;5.37;;;;;;;0.44;100.00;101650.50;5182372;55;1136738;-76
2023/01/21 22:01:34;;;;;;;6.53;4.40;;;;;;;0.44;100.00;101655.71;5202325;55;1138724;-69
2023/01/21 22:06:41;;;;;;;11.23;4.70;;;;;;;0.42;100.00;101651.83;5182159;55;1136649;-71
2023/01/21 22:11:48;;;;;;;9.23;5.43;;;;;;;0.46;100.00;101657.84;5175979;55;1138885;-71
2023/01/21 22:16:54;;;;;;;10.18;5.75;;;;;;;0.45;100.00;101666.53;5132751;55;1136714;-78
2023/01/21 22:22:00;;;;;;;8.20;4.65;;;;;;;0.45;100.00;101671.30;5101262;55;1138944;-74
2023/01/21 22:27:10;;;;;;;11.28;6.10;;;;;;;0.46;100.00;101671.69;5095085;56;1136709;-68
2023/01/21 22:32:16;;;;;;;13.43;7.57;;;;;;;0.48;100.00;101682.93;5115617;56;1138837;-78
2023/01/21 22:37:24;;;;;;;11.33;7.28;;;;;;;0.48;100.00;101680.77;5127706;55;1138844;-77
2023/01/21 22:42:30;;;;;;;12.23;7.23;;;;;;;0.46;100.00;101695.58;5085794;55;1139071;-68
2023/01/21 22:47:35;;;;;;;12.83;6.60;;;;;;;0.46;100.00;101698.19;5159498;55;1139067;-75
2023/01/21 22:52:41;;;;;;;11.10;5.73;;;;;;;0.40;100.00;101695.23;5114524;55;1138721;-74
2023/01/21 22:57:47;;;;;;;8.67;6.30;;;;;;;0.42;100.00;101699.97;5181444;55;1138678;-78
2023/01/21 23:02:52;;;;;;;12.73;6.47;;;;;;;0.43;100.00;101715.15;5201867;55;1136729;-72
2023/01/21 23:07:58;;;;;;;12.73;6.17;;;;;;;0.43;100.00;101713.84;5181554;55;1138735;-69
2023/01/21 23:13:04;;;;;;;10.20;6.37;;;;;;;0.43;100.00;101713.84;5172412;55;1139028;-75
2023/01/21 23:18:10;;;;;;;10.57;7.37;;;;;;;0.46;100.00;101721.61;5182294;55;1138754;-72
2023/01/21 23:23:17;;;;;;;13.17;6.57;;;;;;;0.48;100.00;101731.52;5101587;55;1138917;-73
2023/01/21 23:28:23;;;;;;;7.35;5.22;;;;;;;0.47;100.00;101728.50;5085589;56;1138917;-72
2023/01/21 23:33:29;;;;;;;9.93;5.77;;;;;;;0.50;100.00;101733.66;5116181;55;1137041;-78